Time;durP1;ratioP1;P1;durP2;ratioP2;P2;SDS_P1;SDS_P2;PMS_P1;PMS_P2;Temp;Humidity;BMP_temperature;BMP_pressure;BME280_temperature;BME280_humidity;BME280_pressure;Samples;Min_cycle;Max_cycle;Signal;HPM_P1;HPM_P2
2022/06/14 00:01:11;;;;;;;3.60;1.75;;;;;;;10.15;100.00;101584.78;683358;28;4576;-44
2022/06/14 00:01:32;;;;;;;3.63;1.70;;;;;;;10.09;100.00;101590.81;685349;28;901;-45
2022/06/14 00:01:53;;;;;;;4.32;1.80;;;;;;;10.10;100.00;101586.47;687916;28;1614;-46
2022/06/14 00:02:13;;;;;;;4.57;1.80;;;;;;;10.09;100.00;101588.19;687907;28;1591;-45
2022/06/14 00:02:34;;;;;;;4.63;1.77;;;;;;;10.09;100.00;101588.19;687937;28;1588;-44
2022/06/14 00:02:54;;;;;;;4.60;1.80;;;;;;;10.11;100.00;101589.09;688072;28;1250;-45
2022/06/14 00:03:14;;;;;;;5.07;1.97;;;;;;;10.14;100.00;101594.34;686931;28;1235;-44
2022/06/14 00:03:41;;;;;;;4.35;2.00;;;;;;;10.14;100.00;101594.34;688121;28;1247;-46
2022/06/14 00:04:02;;;;;;;3.80;1.83;;;;;;;10.15;100.00;101593.50;687831;28;1310;-45
2022/06/14 00:04:22;;;;;;;4.43;1.90;;;;;;;10.13;99.88;101592.59;690359;28;4356;-45
2022/06/14 00:04:43;;;;;;;4.43;1.90;;;;;;;10.06;100.00;101593.38;687526;28;1382;-45
2022/06/14 00:05:03;;;;;;;4.47;1.80;;;;;;;10.02;100.00;101594.22;686961;28;1335;-44
2022/06/14 00:05:24;;;;;;;7.30;1.90;;;;;;;10.09;100.00;101589.94;687810;28;1314;-43
2022/06/14 00:05:44;;;;;;;4.17;1.80;;;;;;;10.08;100.00;101594.31;686852;28;1294;-44
2022/06/14 00:06:11;;;;;;;4.13;1.80;;;;;;;10.08;100.00;101599.53;687779;28;1362;-44
2022/06/14 00:06:34;;;;;;;4.20;2.00;;;;;;;10.09;100.00;101592.56;688887;28;1406;-46
2022/06/14 00:06:55;;;;;;;5.05;1.95;;;;;;;10.03;100.00;101601.19;687460;28;1198;-44
2022/06/14 00:07:16;;;;;;;4.43;1.87;;;;;;;10.03;100.00;101596.84;687523;28;4234;-44
2022/06/14 00:07:36;;;;;;;4.63;1.73;;;;;;;10.08;100.00;101589.06;688484;28;1441;-43
2022/06/14 00:07:57;;;;;;;5.53;1.97;;;;;;;10.06;100.00;101590.78;687800;28;1152;-43
2022/06/14 00:08:19;;;;;;;5.05;1.80;;;;;;;10.04;100.00;101593.38;688124;28;1240;-45
2022/06/14 00:08:41;;;;;;;5.60;1.70;;;;;;;10.05;100.00;101594.25;688969;28;1501;-43
2022/06/14 00:09:02;;;;;;;4.50;1.90;;;;;;;9.93;100.00;101596.69;689564;28;1516;-43
2022/06/14 00:09:23;;;;;;;5.57;1.90;;;;;;;9.96;100.00;101591.53;690991;28;1543;-44
2022/06/14 00:09:44;;;;;;;4.33;1.70;;;;;;;10.02;100.00;101595.09;690071;28;1405;-45
2022/06/14 00:10:05;;;;;;;3.95;1.73;;;;;;;10.05;99.79;101594.25;690202;28;4533;-44
2022/06/14 00:10:26;;;;;;;5.55;1.80;;;;;;;10.00;100.00;101593.34;690896;28;1393;-44
2022/06/14 00:10:49;;;;;;;6.30;1.90;;;;;;;9.99;99.13;101587.22;690154;28;1179;-44
2022/06/14 00:11:16;;;;;;;4.78;1.70;;;;;;;10.09;98.42;101593.41;690864;28;1389;-43
2022/06/14 00:11:39;;;;;;;5.47;1.80;;;;;;;10.06;98.93;101590.78;690989;28;1375;-43
2022/06/14 00:12:00;;;;;;;3.85;1.90;;;;;;;10.04;98.96;101593.38;690573;28;1124;-43
2022/06/14 00:12:20;;;;;;;6.13;2.10;;;;;;;9.98;100.00;101593.31;691462;28;1251;-44
2022/06/14 00:12:41;;;;;;;5.30;1.83;;;;;;;9.93;100.00;101588.84;686726;28;1493;-43
2022/06/14 00:13:02;;;;;;;5.97;2.10;;;;;;;9.94;100.00;101593.22;687557;28;1665;-46
2022/06/14 00:13:23;;;;;;;5.10;1.93;;;;;;;9.98;99.65;101593.31;687025;28;4499;-43
2022/06/14 00:13:45;;;;;;;5.05;1.98;;;;;;;10.02;99.83;101595.09;687433;28;948;-43
2022/06/14 00:14:08;;;;;;;5.75;1.90;;;;;;;10.04;99.19;101592.50;688062;28;1329;-44
2022/06/14 00:14:28;;;;;;;5.07;1.80;;;;;;;10.07;99.19;101594.28;688709;28;1330;-45
2022/06/14 00:14:49;;;;;;;4.97;1.90;;;;;;;10.10;98.62;101591.72;690079;28;1120;-43
2022/06/14 00:15:09;;;;;;;5.03;2.15;;;;;;;10.17;99.29;101598.75;690151;28;1337;-43
2022/06/14 00:15:30;;;;;;;3.75;1.80;;;;;;;10.16;98.60;101591.75;690637;28;1351;-44
2022/06/14 00:15:51;;;;;;;4.67;1.80;;;;;;;10.14;99.00;101596.97;687952;28;1167;-43
2022/06/14 00:16:13;;;;;;;4.90;1.83;;;;;;;10.04;99.98;101596.00;687546;28;4711;-44
2022/06/14 00:16:35;;;;;;;5.97;2.10;;;;;;;9.99;100.00;101595.03;687855;28;1374;-44
2022/06/14 00:16:55;;;;;;;5.68;2.10;;;;;;;9.92;100.00;101597.56;687374;28;1236;-44
2022/06/14 00:17:16;;;;;;;6.18;2.10;;;;;;;9.86;100.00;101604.47;687713;28;1204;-44
2022/06/14 00:17:36;;;;;;;4.73;1.90;;;;;;;9.83;100.00;101607.03;687812;28;1361;-43
2022/06/14 00:17:57;;;;;;;4.88;2.00;;;;;;;9.81;100.00;101598.28;686387;28;1408;-44
2022/06/14 00:18:18;;;;;;;4.47;1.90;;;;;;;9.78;100.00;101598.25;687886;28;1310;-43
2022/06/14 00:18:39;;;;;;;4.28;1.77;;;;;;;9.81;100.00;101603.53;690916;28;1397;-44
2022/06/14 00:19:01;;;;;;;4.45;1.80;;;;;;;9.84;100.00;101600.97;690482;28;1120;-44
2022/06/14 00:19:21;;;;;;;4.80;1.80;;;;;;;9.81;100.00;101600.03;685080;28;4533;-44
2022/06/14 00:19:42;;;;;;;5.60;1.87;;;;;;;9.83;100.00;101594.00;686335;28;1216;-45
2022/06/14 00:20:03;;;;;;;4.60;1.90;;;;;;;9.85;100.00;101597.47;685691;28;1382;-43
2022/06/14 00:20:23;;;;;;;4.63;2.20;;;;;;;9.83;100.00;101599.22;687720;28;1287;-43
2022/06/14 00:20:46;;;;;;;5.80;2.17;;;;;;;9.76;100.00;101596.47;685046;28;1541;-43
2022/06/14 00:21:06;;;;;;;7.10;2.20;;;;;;;9.77;100.00;101593.88;684709;28;1279;-43
2022/06/14 00:21:27;;;;;;;5.32;1.80;;;;;;;9.80;100.00;101593.94;687826;28;1349;-46
2022/06/14 00:21:47;;;;;;;4.28;1.80;;;;;;;9.82;100.00;101597.44;687993;28;1263;-44
2022/06/14 00:22:08;;;;;;;4.47;1.83;;;;;;;9.79;100.00;101592.19;684655;28;4481;-46
2022/06/14 00:22:28;;;;;;;4.33;1.80;;;;;;;9.87;100.00;101595.78;685830;28;789;-43
2022/06/14 00:22:49;;;;;;;5.30;1.90;;;;;;;9.91;100.00;101585.38;685022;28;1121;-47
2022/06/14 00:23:10;;;;;;;4.20;1.80;;;;;;;9.89;100.00;101599.28;687739;28;1432;-44
2022/06/14 00:23:31;;;;;;;5.45;1.80;;;;;;;9.90;100.00;101597.56;687770;28;1393;-44
2022/06/14 00:23:51;;;;;;;3.78;1.80;;;;;;;9.94;99.45;101585.41;685508;28;1228;-44
2022/06/14 00:24:13;;;;;;;5.15;1.92;;;;;;;9.94;100.00;101595.84;685339;28;1307;-44
2022/06/14 00:24:33;;;;;;;5.55;2.00;;;;;;;9.85;100.00;101591.41;685689;28;1295;-43
2022/06/14 00:24:56;;;;;;;6.23;1.90;;;;;;;9.82;100.00;101591.34;685062;28;1065;-43
2022/06/14 00:25:29;;;;;;;5.55;2.00;;;;;;;9.81;100.00;101595.69;683258;28;4503;-43
2022/06/14 00:25:55;;;;;;;4.47;1.92;;;;;;;9.76;100.00;101592.16;686446;28;1250;-45
2022/06/14 00:26:15;;;;;;;3.97;2.00;;;;;;;9.77;100.00;101596.50;690667;28;1290;-45
2022/06/14 00:26:36;;;;;;;5.57;1.88;;;;;;;9.78;100.00;101594.78;690913;28;1330;-44
2022/06/14 00:26:57;;;;;;;4.57;1.90;;;;;;;9.80;100.00;101600.88;690882;28;1060;-44
2022/06/14 00:27:17;;;;;;;4.90;2.10;;;;;;;9.82;100.00;101586.13;687707;28;1307;-44
2022/06/14 00:27:37;;;;;;;5.32;2.05;;;;;;;9.81;100.00;101594.81;687285;28;1385;-43
2022/06/14 00:27:59;;;;;;;4.10;1.70;;;;;;;9.78;100.00;101590.44;684971;28;1271;-45
2022/06/14 00:28:21;;;;;;;4.85;1.80;;;;;;;9.83;100.00;101599.22;684811;28;4704;-45
2022/06/14 00:28:43;;;;;;;4.72;1.90;;;;;;;9.83;100.00;101596.59;683830;28;1319;-45
2022/06/14 00:29:04;;;;;;;4.78;1.95;;;;;;;9.85;100.00;101596.63;685674;28;1529;-44
2022/06/14 00:29:25;;;;;;;5.35;1.98;;;;;;;9.84;100.00;101594.84;687093;28;1345;-45
2022/06/14 00:29:45;;;;;;;4.57;1.90;;;;;;;9.76;100.00;101596.47;687034;28;1320;-45
2022/06/14 00:30:06;;;;;;;5.07;1.97;;;;;;;9.69;100.00;101593.81;690510;28;1290;-43
2022/06/14 00:30:26;;;;;;;5.95;2.00;;;;;;;9.69;100.00;101600.75;688150;28;1350;-45
2022/06/14 00:30:51;;;;;;;5.32;1.90;;;;;;;9.70;100.00;101597.28;687259;28;1203;-44
2022/06/14 00:31:17;;;;;;;4.05;1.83;;;;;;;9.62;100.00;101597.19;685858;28;5409;-43
2022/06/14 00:31:38;;;;;;;4.80;2.17;;;;;;;9.50;100.00;101595.25;685816;28;1586;-44
2022/06/14 00:31:58;;;;;;;5.78;2.15;;;;;;;9.43;100.00;101597.75;686239;28;1314;-44
2022/06/14 00:32:19;;;;;;;6.47;2.30;;;;;;;9.43;100.00;101598.66;689232;28;1390;-45
2022/06/14 00:32:39;;;;;;;4.77;2.17;;;;;;;9.44;100.00;101596.91;690632;28;1543;-45
2022/06/14 00:33:00;;;;;;;3.78;1.77;;;;;;;9.50;100.00;101589.19;690224;28;1234;-43
2022/06/14 00:33:21;;;;;;;5.30;2.40;;;;;;;9.53;100.00;101600.53;690962;28;1342;-44
2022/06/14 00:33:42;;;;;;;6.57;2.15;;;;;;;9.56;100.00;101588.38;690221;28;1337;-43
2022/06/14 00:34:02;;;;;;;6.65;1.92;;;;;;;9.52;100.00;101596.16;689614;28;916;-43
2022/06/14 00:34:23;;;;;;;4.53;2.03;;;;;;;9.52;100.00;101597.91;690203;28;4270;-45
2022/06/14 00:34:43;;;;;;;4.30;2.10;;;;;;;9.51;100.00;101589.19;690692;28;1543;-45
2022/06/14 00:35:04;;;;;;;4.53;1.80;;;;;;;9.53;100.00;101592.69;690613;28;812;-44
2022/06/14 00:35:24;;;;;;;4.40;1.90;;;;;;;9.58;100.00;101598.00;690839;28;765;-44
2022/06/14 00:35:45;;;;;;;4.53;1.87;;;;;;;9.63;100.00;101596.31;690653;28;1631;-43
2022/06/14 00:36:21;;;;;;;5.45;1.98;;;;;;;9.66;100.00;101596.38;687866;28;1243;-43
2022/06/14 00:36:51;;;;;;;6.28;2.03;;;;;;;9.65;100.00;101591.09;688018;28;1575;-43
2022/06/14 00:37:16;;;;;;;4.55;1.90;;;;;;;9.64;100.00;101592.00;687179;28;4400;-48
2022/06/14 00:37:36;;;;;;;5.20;2.20;;;;;;;9.59;100.00;101599.72;688462;28;1357;-44
2022/06/14 00:37:57;;;;;;;4.20;1.98;;;;;;;9.57;100.00;101590.13;688839;28;1135;-44
2022/06/14 00:38:17;;;;;;;4.17;2.00;;;;;;;9.56;100.00;101594.47;690947;28;1321;-44
2022/06/14 00:38:38;;;;;;;4.50;2.00;;;;;;;9.59;100.00;101596.25;691028;28;1322;-43
2022/06/14 00:39:02;;;;;;;4.73;2.00;;;;;;;9.61;100.00;101587.59;690359;28;1196;-44
2022/06/14 00:39:23;;;;;;;4.72;2.33;;;;;;;9.58;100.00;101594.50;690110;28;1485;-43
2022/06/14 00:39:44;;;;;;;4.57;1.80;;;;;;;9.46;100.00;101592.59;690273;28;1509;-43
2022/06/14 00:40:06;;;;;;;5.90;1.85;;;;;;;9.40;100.00;101593.38;689656;28;4434;-44
2022/06/14 00:40:29;;;;;;;5.30;2.10;;;;;;;9.37;100.00;101588.09;690725;28;1299;-43
2022/06/14 00:40:54;;;;;;;5.40;2.10;;;;;;;9.27;100.00;101591.44;690731;28;1191;-48
2022/06/14 00:41:27;;;;;;;7.07;2.10;;;;;;;9.10;100.00;101599.88;690580;28;1136;-42
2022/06/14 00:41:52;;;;;;;4.60;2.10;;;;;;;9.03;100.00;101601.50;689951;28;1238;-44
2022/06/14 00:42:20;;;;;;;4.80;2.00;;;;;;;8.96;100.00;101602.25;690590;28;1281;-43
2022/06/14 00:42:41;;;;;;;4.00;1.90;;;;;;;8.94;100.00;101590.91;690586;28;1531;-44
2022/06/14 00:43:05;;;;;;;5.13;2.00;;;;;;;8.96;100.00;101591.81;690794;28;1334;-45
2022/06/14 00:43:28;;;;;;;4.55;2.10;;;;;;;8.95;100.00;101599.63;689901;28;4777;-45
2022/06/14 00:43:48;;;;;;;5.38;2.20;;;;;;;9.03;100.00;101598.03;690728;28;1163;-45
2022/06/14 00:44:15;;;;;;;6.07;2.10;;;;;;;9.05;100.00;101596.31;687547;28;1284;-43
2022/06/14 00:44:35;;;;;;;6.57;2.20;;;;;;;9.05;100.00;101593.69;687691;28;1241;-45
2022/06/14 00:45:07;;;;;;;6.03;2.08;;;;;;;9.12;100.00;101602.50;687999;28;1054;-43
2022/06/14 00:45:27;;;;;;;4.72;1.90;;;;;;;9.22;100.00;101598.31;687756;28;1881;-44
2022/06/14 00:45:51;;;;;;;4.70;2.00;;;;;;;9.29;100.00;101594.94;687181;28;1199;-44
2022/06/14 00:46:26;;;;;;;3.97;1.92;;;;;;;9.36;100.00;101587.22;690304;28;4714;-43
2022/06/14 00:46:59;;;;;;;5.78;2.00;;;;;;;9.40;100.00;101588.16;689957;28;1143;-44
2022/06/14 00:47:20;;;;;;;5.93;2.13;;;;;;;9.43;100.00;101588.22;690779;28;1444;-43
2022/06/14 00:47:56;;;;;;;5.65;2.20;;;;;;;9.45;100.00;101596.06;690940;28;1377;-44
2022/06/14 00:48:26;;;;;;;5.90;2.03;;;;;;;9.48;100.00;101591.75;691085;28;1362;-44
2022/06/14 00:48:53;;;;;;;4.90;1.98;;;;;;;9.49;100.00;101590.91;690024;28;1380;-47
2022/06/14 00:49:19;;;;;;;5.38;2.00;;;;;;;9.42;100.00;101596.88;689731;28;4609;-44
2022/06/14 00:49:39;;;;;;;5.10;2.08;;;;;;;9.38;100.00;101590.72;690551;28;1769;-44
2022/06/14 00:50:04;;;;;;;4.45;1.95;;;;;;;9.37;100.00;101594.22;690072;28;1160;-42
2022/06/14 00:50:31;;;;;;;4.40;2.13;;;;;;;9.39;100.00;101596.84;691640;28;1493;-44
2022/06/14 00:51:03;;;;;;;4.47;2.40;;;;;;;9.33;100.00;101597.63;690060;28;1103;-44
2022/06/14 00:51:27;;;;;;;4.57;2.03;;;;;;;9.41;100.00;101589.03;690354;28;1358;-44
2022/06/14 00:52:13;;;;;;;5.18;2.33;;;;;;;9.50;100.00;101594.41;690302;28;1180;-43
2022/06/14 00:52:48;;;;;;;5.65;1.90;;;;;;;9.62;100.00;101585.84;687050;28;4971;-43
2022/06/14 00:53:16;;;;;;;5.28;1.92;;;;;;;9.68;100.00;101588.56;685010;28;1280;-43
2022/06/14 00:53:46;;;;;;;4.03;1.90;;;;;;;9.75;100.00;101590.41;685382;28;1678;-43
2022/06/14 00:54:13;;;;;;;4.65;2.00;;;;;;;9.73;100.00;101586.88;684901;28;814;-43
2022/06/14 00:54:39;;;;;;;4.45;2.10;;;;;;;9.70;100.00;101586.84;687589;28;1379;-43
2022/06/14 00:55:25;;;;;;;5.63;2.15;;;;;;;9.63;100.00;101590.22;688316;28;1162;-43
2022/06/14 00:55:57;;;;;;;4.53;1.90;;;;;;;9.58;100.00;101587.56;683414;28;4925;-43
2022/06/14 00:56:26;;;;;;;4.63;2.20;;;;;;;9.59;100.00;101588.44;689628;28;1909;-44
2022/06/14 00:56:57;;;;;;;5.82;2.20;;;;;;;9.58;100.00;101586.66;690404;28;924;-43
2022/06/14 00:57:25;;;;;;;5.60;2.10;;;;;;;9.53;100.00;101594.44;690658;28;1168;-42
2022/06/14 00:58:10;;;;;;;5.78;1.92;;;;;;;9.49;100.00;101592.63;690854;28;881;-44
2022/06/14 00:58:43;;;;;;;6.00;2.03;;;;;;;9.50;100.00;101597.88;687343;28;4767;-45
2022/06/14 00:59:28;;;;;;;4.13;2.20;;;;;;;9.50;100.00;101599.63;687870;28;1251;-43
2022/06/14 01:00:07;;;;;;;5.38;2.15;;;;;;;9.45;100.00;101596.91;688043;28;1025;-43
2022/06/14 01:00:37;;;;;;;4.72;2.40;;;;;;;9.40;100.00;101593.38;690835;28;817;-43
2022/06/14 01:01:03;;;;;;;4.28;2.05;;;;;;;9.42;100.00;101591.66;690700;28;1166;-42
2022/06/14 01:01:29;;;;;;;6.20;2.03;;;;;;;9.45;100.00;101588.22;687189;28;4424;-44
2022/06/14 01:01:55;;;;;;;5.63;2.00;;;;;;;9.40;100.00;101592.50;687550;28;1025;-43
2022/06/14 01:02:31;;;;;;;5.38;2.00;;;;;;;9.34;100.00;101595.88;687173;28;1228;-43
2022/06/14 01:02:57;;;;;;;4.80;2.10;;;;;;;9.24;100.00;101594.00;683860;28;1424;-43
2022/06/14 01:03:25;;;;;;;3.67;1.88;;;;;;;9.17;100.00;101595.63;686624;28;1396;-43
2022/06/14 01:03:53;;;;;;;5.22;2.05;;;;;;;9.13;100.00;101593.84;684921;28;1710;-43
2022/06/14 01:04:27;;;;;;;4.60;2.22;;;;;;;9.16;100.00;101601.69;681226;28;4635;-43
2022/06/14 01:04:48;;;;;;;5.10;2.20;;;;;;;9.19;100.00;101588.69;683369;28;1178;-43
2022/06/14 01:05:17;;;;;;;4.47;1.90;;;;;;;9.22;100.00;101591.38;684107;28;1154;-44
2022/06/14 01:06:06;;;;;;;5.13;2.13;;;;;;;9.24;100.00;101591.41;685123;28;1292;-43
2022/06/14 01:06:42;;;;;;;4.35;2.00;;;;;;;9.12;100.00;101592.94;690394;28;1144;-42
2022/06/14 01:07:10;;;;;;;6.13;2.30;;;;;;;9.11;100.00;101590.31;690211;28;1477;-43
2022/06/14 01:07:36;;;;;;;6.22;2.20;;;;;;;9.15;100.00;101593.00;688715;28;4749;-43
2022/06/14 01:07:58;;;;;;;4.88;2.00;;;;;;;9.19;100.00;101592.19;686141;28;1290;-43
2022/06/14 01:08:18;;;;;;;4.57;2.10;;;;;;;9.25;100.00;101594.03;683757;28;1237;-43
2022/06/14 01:08:46;;;;;;;4.45;2.10;;;;;;;9.25;100.00;101587.91;684251;28;1312;-42
2022/06/14 01:09:12;;;;;;;5.07;2.35;;;;;;;9.28;100.00;101588.84;681548;28;1413;-43
2022/06/14 01:09:48;;;;;;;4.70;1.90;;;;;;;9.30;100.00;101589.72;680638;28;1415;-42
2022/06/14 01:10:16;;;;;;;5.68;1.95;;;;;;;9.37;100.00;101589.00;685246;28;4977;-42
2022/06/14 01:10:37;;;;;;;3.97;2.00;;;;;;;9.33;100.00;101589.81;687608;28;1228;-43
2022/06/14 01:10:57;;;;;;;4.10;2.00;;;;;;;9.24;100.00;101591.41;688334;28;1237;-43
2022/06/14 01:11:38;;;;;;;5.38;2.42;;;;;;;9.09;100.00;101592.88;690676;28;1708;-43
2022/06/14 01:12:13;;;;;;;5.28;2.40;;;;;;;9.09;100.00;101592.88;690371;28;1467;-43
2022/06/14 01:12:40;;;;;;;4.93;2.17;;;;;;;9.09;100.00;101592.88;690174;28;1322;-43
2022/06/14 01:13:04;;;;;;;4.38;2.17;;;;;;;9.16;100.00;101589.53;690068;28;3709;-47
2022/06/14 01:13:25;;;;;;;4.47;2.40;;;;;;;9.23;100.00;101587.03;690237;28;4675;-43
2022/06/14 01:13:46;;;;;;;6.85;2.38;;;;;;;9.22;100.00;101586.16;688770;28;1409;-43
2022/06/14 01:14:09;;;;;;;6.35;2.45;;;;;;;9.17;100.00;101588.69;690782;28;1445;-45
2022/06/14 01:14:47;;;;;;;5.20;2.42;;;;;;;9.16;100.00;101586.03;690545;28;844;-43
2022/06/14 01:15:15;;;;;;;5.20;2.50;;;;;;;9.14;100.00;101590.38;690079;28;1441;-45
2022/06/14 01:15:35;;;;;;;4.90;2.20;;;;;;;9.13;100.00;101584.25;689877;28;1138;-43
2022/06/14 01:15:56;;;;;;;6.00;2.50;;;;;;;9.19;100.00;101584.38;690879;28;1484;-43
2022/06/14 01:16:17;;;;;;;6.15;2.47;;;;;;;9.28;100.00;101578.41;690437;28;5181;-43
2022/06/14 01:16:37;;;;;;;4.80;2.30;;;;;;;9.33;100.00;101575.84;686723;28;1616;-43
2022/06/14 01:16:57;;;;;;;4.75;2.38;;;;;;;9.32;100.00;101589.78;687120;28;1149;-43
2022/06/14 01:17:19;;;;;;;5.03;2.30;;;;;;;9.31;100.00;101580.19;688271;28;1279;-43
2022/06/14 01:17:43;;;;;;;6.05;2.10;;;;;;;9.28;100.00;101582.75;687521;28;1031;-43
2022/06/14 01:18:07;;;;;;;4.95;2.03;;;;;;;9.23;100.00;101584.41;684876;28;962;-43
2022/06/14 01:18:29;;;;;;;4.70;2.30;;;;;;;9.16;100.00;101581.69;686554;28;1335;-45
2022/06/14 01:18:50;;;;;;;5.30;2.30;;;;;;;9.08;100.00;101580.69;687081;28;1156;-44
2022/06/14 01:19:21;;;;;;;5.32;2.25;;;;;;;9.02;100.00;101583.22;686538;28;4868;-43
2022/06/14 01:19:42;;;;;;;5.32;2.13;;;;;;;9.04;100.00;101578.88;687592;28;1362;-44
2022/06/14 01:20:04;;;;;;;4.88;2.13;;;;;;;9.08;100.00;101582.44;687475;28;1660;-45
2022/06/14 01:20:25;;;;;;;4.72;2.17;;;;;;;9.09;100.00;101582.47;687575;28;1331;-44
2022/06/14 01:20:45;;;;;;;4.32;1.90;;;;;;;9.09;100.00;101582.47;686431;28;1318;-43
2022/06/14 01:21:06;;;;;;;4.80;2.00;;;;;;;9.08;100.00;101574.59;687757;28;1217;-44
2022/06/14 01:21:28;;;;;;;4.90;2.08;;;;;;;9.10;100.00;101573.78;687015;28;1465;-44
2022/06/14 01:21:53;;;;;;;5.43;2.20;;;;;;;9.11;100.00;101579.88;684741;28;1290;-44
2022/06/14 01:22:13;;;;;;;5.22;2.13;;;;;;;9.08;100.00;101575.47;686852;28;4297;-43
2022/06/14 01:22:34;;;;;;;5.53;2.20;;;;;;;9.03;100.00;101575.41;688118;28;1350;-43
2022/06/14 01:22:55;;;;;;;5.28;2.30;;;;;;;9.07;100.00;101584.19;684769;28;1138;-44
2022/06/14 01:23:17;;;;;;;5.30;2.30;;;;;;;9.07;100.00;101578.97;684704;28;1327;-43
2022/06/14 01:23:37;;;;;;;5.70;2.28;;;;;;;9.07;100.00;101575.47;686012;28;1362;-44
2022/06/14 01:23:57;;;;;;;4.80;2.30;;;;;;;9.03;100.00;101579.75;687116;28;1381;-44
2022/06/14 01:24:21;;;;;;;7.17;2.70;;;;;;;8.98;100.00;101574.44;687591;28;1409;-44
2022/06/14 01:24:42;;;;;;;7.82;2.70;;;;;;;8.96;100.00;101572.69;688185;28;1318;-43
2022/06/14 01:25:04;;;;;;;6.82;2.50;;;;;;;8.92;100.00;101578.72;690317;28;1306;-43
2022/06/14 01:25:29;;;;;;;5.55;2.30;;;;;;;8.89;100.00;101573.44;689478;28;5337;-45
2022/06/14 01:25:53;;;;;;;5.35;2.25;;;;;;;8.90;100.00;101572.59;690142;28;1671;-45
2022/06/14 01:26:17;;;;;;;4.30;2.03;;;;;;;8.95;100.00;101573.53;690052;28;1345;-44
2022/06/14 01:26:38;;;;;;;5.13;2.33;;;;;;;8.97;100.00;101571.81;690758;28;1346;-44
2022/06/14 01:27:00;;;;;;;5.00;2.10;;;;;;;9.00;100.00;101569.28;690606;28;1620;-44
2022/06/14 01:27:24;;;;;;;4.32;2.00;;;;;;;9.04;100.00;101573.66;689987;28;1537;-44
2022/06/14 01:27:45;;;;;;;4.38;1.90;;;;;;;9.08;100.00;101572.88;687499;28;1359;-43
2022/06/14 01:28:08;;;;;;;5.05;2.10;;;;;;;9.13;100.00;101570.34;685794;28;4690;-44
2022/06/14 01:28:30;;;;;;;4.80;2.22;;;;;;;9.18;100.00;101566.97;685434;28;1003;-44
2022/06/14 01:28:57;;;;;;;5.20;2.05;;;;;;;9.27;100.00;101570.56;685662;28;794;-43
2022/06/14 01:29:19;;;;;;;5.07;2.30;;;;;;;9.28;100.00;101573.19;684235;28;1395;-43
2022/06/14 01:29:46;;;;;;;4.10;2.00;;;;;;;9.31;100.00;101572.38;685051;28;1398;-44
2022/06/14 01:30:22;;;;;;;3.92;1.98;;;;;;;9.30;100.00;101568.84;685517;28;1307;-44
2022/06/14 01:30:46;;;;;;;5.07;1.95;;;;;;;9.26;100.00;101571.41;687109;28;1335;-43
2022/06/14 01:31:07;;;;;;;4.70;1.95;;;;;;;9.23;100.00;101573.97;684560;28;4560;-44
2022/06/14 01:31:30;;;;;;;4.95;2.03;;;;;;;9.15;100.00;101576.47;687410;28;928;-44
2022/06/14 01:31:59;;;;;;;5.85;1.98;;;;;;;9.06;100.00;101574.59;683912;28;1940;-44
2022/06/14 01:32:20;;;;;;;4.15;2.00;;;;;;;8.98;100.00;101564.03;681449;28;1355;-44
2022/06/14 01:32:47;;;;;;;4.55;2.05;;;;;;;9.00;100.00;101571.91;678383;28;1397;-43
2022/06/14 01:33:11;;;;;;;5.25;2.08;;;;;;;8.93;100.00;101570.91;679864;29;916;-44
2022/06/14 01:33:40;;;;;;;5.85;2.13;;;;;;;8.95;100.00;101573.53;679790;29;1366;-43
2022/06/14 01:34:07;;;;;;;4.10;1.83;;;;;;;8.97;100.00;101572.72;680482;28;1320;-44
2022/06/14 01:34:30;;;;;;;4.57;2.00;;;;;;;8.96;100.00;101570.09;683792;28;5033;-44
2022/06/14 01:34:54;;;;;;;5.28;2.10;;;;;;;8.94;100.00;101571.78;684782;28;1092;-44
2022/06/14 01:35:19;;;;;;;4.30;1.90;;;;;;;8.92;100.00;101570.88;687818;28;1452;-43
2022/06/14 01:35:44;;;;;;;3.55;1.98;;;;;;;8.94;100.00;101577.00;687908;28;1342;-44
2022/06/14 01:36:15;;;;;;;5.63;2.20;;;;;;;8.92;100.00;101574.38;687233;28;1305;-45
2022/06/14 01:36:39;;;;;;;5.88;2.20;;;;;;;8.92;100.00;101573.50;687583;28;1922;-47
2022/06/14 01:37:00;;;;;;;5.13;2.20;;;;;;;8.95;100.00;101576.16;686874;28;1176;-44
2022/06/14 01:37:22;;;;;;;6.00;2.35;;;;;;;8.95;100.00;101579.63;689990;28;4795;-44
2022/06/14 01:37:45;;;;;;;6.15;2.20;;;;;;;8.97;100.00;101572.72;690550;28;1178;-43
2022/06/14 01:38:09;;;;;;;5.05;1.92;;;;;;;9.00;100.00;101575.38;690166;28;1413;-45
2022/06/14 01:38:30;;;;;;;5.43;2.25;;;;;;;9.02;100.00;101576.25;690324;28;959;-44
2022/06/14 01:38:51;;;;;;;5.47;2.08;;;;;;;9.03;100.00;101578.03;690279;28;1679;-44
2022/06/14 01:39:15;;;;;;;4.80;2.35;;;;;;;9.00;100.00;101567.53;686994;28;4779;-44
2022/06/14 01:39:37;;;;;;;5.28;2.42;;;;;;;9.02;100.00;101571.03;687385;28;1330;-44
2022/06/14 01:39:58;;;;;;;5.00;2.03;;;;;;;9.05;100.00;101580.66;687224;28;1263;-43
2022/06/14 01:40:22;;;;;;;6.28;2.30;;;;;;;9.08;100.00;101574.59;688509;28;4404;-45
2022/06/14 01:41:19;;;;;;;4.30;1.95;;;;;;;9.02;100.00;101575.38;686749;28;1365;-44
2022/06/14 01:41:55;;;;;;;4.22;1.98;;;;;;;9.06;100.00;101573.72;690797;28;1326;-43
2022/06/14 01:42:31;;;;;;;6.60;2.28;;;;;;;9.12;100.00;101569.44;690297;28;1259;-44
2022/06/14 01:43:04;;;;;;;5.40;2.20;;;;;;;9.17;100.00;101574.75;689833;28;1480;-44
2022/06/14 01:43:35;;;;;;;4.60;1.90;;;;;;;9.16;100.00;101579.09;687601;28;4768;-44
2022/06/14 01:44:04;;;;;;;4.18;1.90;;;;;;;9.20;100.00;101574.81;687477;28;1239;-44
2022/06/14 01:45:06;;;;;;;5.07;1.90;;;;;;;9.22;100.00;101577.44;688461;28;1548;-45
2022/06/14 01:45:39;;;;;;;4.88;1.80;;;;;;;9.27;100.00;101566.22;687654;28;1447;-45
2022/06/14 01:46:09;;;;;;;5.05;1.98;;;;;;;9.24;100.00;101575.75;689547;28;1640;-44
2022/06/14 01:46:44;;;;;;;4.57;2.00;;;;;;;9.07;100.00;101572.84;692216;28;4821;-44
2022/06/14 01:47:04;;;;;;;5.22;2.10;;;;;;;9.03;100.00;101579.75;687323;28;1246;-43
2022/06/14 01:47:35;;;;;;;6.30;2.30;;;;;;;8.91;100.00;101575.22;688614;28;1421;-45
2022/06/14 01:48:26;;;;;;;6.00;2.15;;;;;;;8.85;100.00;101576.00;688282;28;1294;-43
2022/06/14 01:52:04;;;;;;;4.15;2.20;;;;;;;8.81;100.00;101578.53;681927;28;1440;-44
2022/06/14 01:52:34;;;;;;;4.30;2.20;;;;;;;8.79;100.00;101572.38;681794;28;4770;-44
2022/06/14 01:53:06;;;;;;;6.03;2.50;;;;;;;8.77;100.00;101569.75;681966;28;1319;-44
2022/06/14 01:53:59;;;;;;;5.68;2.42;;;;;;;8.75;100.00;101567.97;681365;28;1370;-45
2022/06/14 01:54:42;;;;;;;4.60;2.00;;;;;;;8.85;100.00;101568.16;671974;29;1346;-44
2022/06/14 01:55:28;;;;;;;4.30;2.00;;;;;;;8.89;100.00;101563.88;682659;28;1552;-44
2022/06/14 01:56:29;;;;;;;5.13;2.08;;;;;;;8.87;100.00;101565.56;680666;28;4827;-45
2022/06/14 01:57:11;;;;;;;5.63;2.33;;;;;;;8.83;100.00;101567.28;679622;28;1545;-44
2022/06/14 01:57:31;;;;;;;5.63;2.17;;;;;;;8.79;100.00;101562.88;682122;28;1425;-44
2022/06/14 01:58:01;;;;;;;5.32;2.10;;;;;;;8.79;100.00;101565.47;691383;28;1473;-43
2022/06/14 01:58:34;;;;;;;5.38;2.10;;;;;;;8.84;100.00;101561.19;689640;28;4552;-43
2022/06/14 01:59:03;;;;;;;5.20;2.15;;;;;;;8.83;100.00;101564.66;689542;28;1176;-44
2022/06/14 01:59:43;;;;;;;5.43;2.05;;;;;;;8.87;100.00;101560.38;688084;28;1334;-45
2022/06/14 02:00:28;;;;;;;4.47;2.30;;;;;;;8.83;100.00;101564.66;688058;28;820;-44
2022/06/14 02:00:56;;;;;;;4.88;2.20;;;;;;;8.87;100.00;101568.19;685437;28;1386;-43
2022/06/14 02:01:26;;;;;;;4.43;2.20;;;;;;;8.82;100.00;101562.91;686986;28;4385;-42
2022/06/14 02:02:22;;;;;;;4.90;2.20;;;;;;;8.84;100.00;101566.41;690910;28;1377;-45
2022/06/14 02:04:50;;;;;;;4.03;2.20;;;;;;;8.86;100.00;101569.94;692059;28;5118;-44
2022/06/14 02:05:27;;;;;;;5.88;2.17;;;;;;;8.82;100.00;101572.44;691150;28;1616;-43
2022/06/14 02:06:09;;;;;;;5.38;2.40;;;;;;;8.65;100.00;101570.44;691111;28;1397;-44
2022/06/14 02:06:38;;;;;;;4.68;2.30;;;;;;;8.61;100.00;101573.84;690270;28;1294;-43
2022/06/14 02:07:09;;;;;;;5.38;2.10;;;;;;;8.61;100.00;101567.72;691107;28;1167;-44
2022/06/14 02:07:50;;;;;;;4.57;2.00;;;;;;;8.57;100.00;101571.13;690186;28;4773;-45
2022/06/14 02:08:18;;;;;;;7.45;2.30;;;;;;;8.57;100.00;101574.63;690974;28;1375;-45
2022/06/14 02:08:48;;;;;;;6.68;2.40;;;;;;;8.60;100.00;101573.78;691538;28;1263;-44
2022/06/14 02:09:35;;;;;;;4.93;2.20;;;;;;;8.67;100.00;101568.72;690730;28;3619;-44